Time;durP1;ratioP1;P1;durP2;ratioP2;P2;SDS_P1;SDS_P2;PMS_P1;PMS_P2;Temp;Humidity;BMP_temperature;BMP_pressure;BME280_temperature;BME280_humidity;BME280_pressure;Samples;Min_cycle;Max_cycle;Signal;HPM_P1;HPM_P2
2023/12/09 00:02:06;;;;;;;;;;;;;;;5.58;60.66;100904.09;5495730;32;34956;-65
2023/12/09 00:05:08;;;;;;;;;;;;;;;5.34;60.80;100894.78;5470277;32;35355;-72
2023/12/09 00:08:10;;;;;;;;;;;;;;;4.97;61.71;100907.28;5499885;32;34745;-64
2023/12/09 00:11:13;;;;;;;;;;;;;;;5.41;61.03;100899.94;5481191;32;35331;-71
2023/12/09 00:14:15;;;;;;;;;;;;;;;4.61;63.14;100909.25;5501063;32;34855;-73
2023/12/09 00:17:17;;;;;;;;;;;;;;;5.22;61.83;100898.37;5492567;32;34846;-66
2023/12/09 00:20:19;;;;;;;;;;;;;;;5.38;60.66;100899.97;5499178;32;34895;-72
2023/12/09 00:23:21;;;;;;;;;;;;;;;5.53;60.01;100898.06;5498262;32;34792;-65
2023/12/09 00:26:23;;;;;;;;;;;;;;;4.73;61.60;100896.16;5496010;32;34635;-65
2023/12/09 00:29:26;;;;;;;;;;;;;;;5.06;61.02;100897.63;5487999;32;35054;-72
2023/12/09 00:32:28;;;;;;;;;;;;;;;5.52;59.60;100898.97;5486633;32;35592;-65
2023/12/09 00:35:30;;;;;;;;;;;;;;;5.22;60.42;100901.00;5488885;32;34854;-71
2023/12/09 00:38:33;;;;;;;;;;;;;;;5.25;60.13;100892.28;5487094;32;34099;-65
2023/12/09 00:41:35;;;;;;;;;;;;;;;5.27;60.08;100887.91;5480169;32;34665;-72
2023/12/09 00:44:37;;;;;;;;;;;;;;;4.99;61.18;100895.97;5483426;32;34239;-70
2023/12/09 00:47:39;;;;;;;;;;;;;;;5.09;60.66;100900.25;5468550;32;34681;-72
2023/12/09 00:50:41;;;;;;;;;;;;;;;5.03;60.94;100904.63;5488877;32;34787;-72
2023/12/09 00:53:44;;;;;;;;;;;;;;;5.31;60.08;100906.12;5483563;32;34593;-66
2023/12/09 00:56:46;;;;;;;;;;;;;;;4.94;61.02;100905.56;5479158;32;34924;-67
2023/12/09 00:59:48;;;;;;;;;;;;;;;4.79;62.05;100911.75;5483142;32;34889;-72
2023/12/09 01:02:50;;;;;;;;;;;;;;;4.98;61.72;100912.47;5476683;32;34551;-66
2023/12/09 01:05:52;;;;;;;;;;;;;;;4.78;62.20;100904.81;5501303;32;34808;-65
2023/12/09 01:08:55;;;;;;;;;;;;;;;4.53;62.37;100908.47;5501965;32;34793;-64
2023/12/09 01:11:57;;;;;;;;;;;;;;;4.84;62.13;100899.56;5478385;32;34223;-72
2023/12/09 01:14:59;;;;;;;;;;;;;;;4.80;61.93;100908.25;5455216;32;35014;-66
2023/12/09 01:18:02;;;;;;;;;;;;;;;4.76;63.08;100905.69;5501215;32;35431;-64
2023/12/09 01:21:04;;;;;;;;;;;;;;;4.44;63.96;100911.09;5496611;32;34740;-72
2023/12/09 01:24:06;;;;;;;;;;;;;;;4.81;62.65;100902.19;5504699;32;34586;-67
2023/12/09 01:27:08;;;;;;;;;;;;;;;5.34;60.62;100884.34;5495066;32;35593;-66
2023/12/09 01:30:11;;;;;;;;;;;;;;;4.86;61.56;100897.81;5470021;32;35390;-65
2023/12/09 01:33:13;;;;;;;;;;;;;;;4.89;62.18;100908.22;5486683;32;34641;-72
2023/12/09 01:36:15;;;;;;;;;;;;;;;5.07;61.42;100896.75;5481798;32;35199;-66
2023/12/09 01:39:17;;;;;;;;;;;;;;;4.95;61.78;100896.84;5504086;32;34859;-72
2023/12/09 01:42:20;;;;;;;;;;;;;;;4.65;62.75;100884.94;5501025;32;34134;-71
2023/12/09 01:45:22;;;;;;;;;;;;;;;4.59;63.11;100890.19;5505048;32;35559;-64
2023/12/09 01:48:24;;;;;;;;;;;;;;;4.59;63.37;100893.66;5478423;32;34863;-66
2023/12/09 01:51:27;;;;;;;;;;;;;;;4.53;63.87;100887.63;5482467;32;34250;-65
2023/12/09 01:54:29;;;;;;;;;;;;;;;4.85;63.20;100890.87;5486886;32;34072;-71
2023/12/09 01:57:31;;;;;;;;;;;;;;;4.75;64.14;100890.94;5476648;32;34730;-66
2023/12/09 02:00:33;;;;;;;;;;;;;;;4.78;63.40;100883.12;5486073;32;34835;-72
2023/12/09 02:03:36;;;;;;;;;;;;;;;4.57;63.67;100897.13;5482739;32;34308;-66
2023/12/09 02:06:38;;;;;;;;;;;;;;;5.10;62.29;100891.53;5471567;32;35652;-66
2023/12/09 02:09:40;;;;;;;;;;;;;;;5.06;62.30;100900.25;5458308;32;35493;-72
2023/12/09 02:13:07;;;;;;;;;;;;;;;4.87;63.28;100889.09;5497257;32;34787;-65
2023/12/09 02:16:11;;;;;;;;;;;;;;;5.14;62.29;100894.97;5502608;32;34190;-66
2023/12/09 02:19:13;;;;;;;;;;;;;;;5.26;61.53;100897.47;5457600;32;35334;-64
2023/12/09 02:22:16;;;;;;;;;;;;;;;4.95;62.58;100885.56;5483250;32;34232;-66
2023/12/09 02:25:18;;;;;;;;;;;;;;;5.27;61.53;100880.94;5478159;32;34176;-65
2023/12/09 02:28:23;;;;;;;;;;;;;;;4.72;62.96;100890.97;5482049;32;34444;-72
2023/12/09 02:31:26;;;;;;;;;;;;;;;4.32;63.96;100901.66;5485940;32;35330;-65
2023/12/09 02:34:28;;;;;;;;;;;;;;;5.01;62.51;100894.22;5482137;32;34083;-64
2023/12/09 02:37:31;;;;;;;;;;;;;;;4.97;62.55;100889.91;5483689;32;34268;-65
2023/12/09 02:40:33;;;;;;;;;;;;;;;4.89;62.74;100894.31;5478283;32;34458;-72
2023/12/09 02:43:36;;;;;;;;;;;;;;;4.88;62.62;100885.63;5480137;32;34271;-69
2023/12/09 02:46:38;;;;;;;;;;;;;;;4.93;62.43;100896.00;5499563;32;35363;-71
2023/12/09 02:49:40;;;;;;;;;;;;;;;4.54;63.62;100891.97;5497363;32;34737;-72
2023/12/09 02:52:43;;;;;;;;;;;;;;;4.80;63.08;100892.62;5500424;31;34925;-65
2023/12/09 02:55:45;;;;;;;;;;;;;;;4.89;62.86;100897.81;5493407;32;34384;-66
2023/12/09 02:58:47;;;;;;;;;;;;;;;4.92;62.64;100893.44;5475985;32;34207;-71
2023/12/09 03:01:49;;;;;;;;;;;;;;;4.77;62.75;100897.87;5472054;32;34755;-72
2023/12/09 03:04:52;;;;;;;;;;;;;;;4.67;63.33;100898.81;5485358;32;34495;-72
2023/12/09 03:07:54;;;;;;;;;;;;;;;4.63;63.80;100897.94;5481016;32;35417;-71
2023/12/09 03:10:56;;;;;;;;;;;;;;;4.47;64.83;100901.53;5465459;32;34963;-66
2023/12/09 03:13:58;;;;;;;;;;;;;;;4.68;64.86;100899.66;5486135;32;35034;-66
2023/12/09 03:17:00;;;;;;;;;;;;;;;4.80;63.79;100897.00;5468560;31;34134;-71
2023/12/09 03:20:03;;;;;;;;;;;;;;;5.01;62.67;100896.81;5484284;32;35255;-65
2023/12/09 03:23:05;;;;;;;;;;;;;;;5.06;62.54;100895.03;5481827;32;34395;-65
2023/12/09 03:26:16;;;;;;;;;;;;;;;5.19;61.93;100905.34;5484330;32;34721;-71
2023/12/09 03:29:19;;;;;;;;;;;;;;;4.96;62.77;100913.34;5483729;32;34880;-71
2023/12/09 03:32:21;;;;;;;;;;;;;;;5.10;61.95;100906.31;5479939;32;34778;-65
2023/12/09 03:35:23;;;;;;;;;;;;;;;5.13;62.16;100908.88;5470829;32;34855;-72
2023/12/09 03:38:25;;;;;;;;;;;;;;;5.11;61.98;100911.50;5493304;32;34471;-71
2023/12/09 03:41:27;;;;;;;;;;;;;;;5.00;62.13;100908.13;5495041;32;35080;-64
2023/12/09 03:44:30;;;;;;;;;;;;;;;5.13;62.27;100919.31;5473102;32;35133;-71
2023/12/09 03:47:32;;;;;;;;;;;;;;;4.99;61.79;100905.53;5490317;32;35640;-65
2023/12/09 03:50:34;;;;;;;;;;;;;;;5.18;61.81;100906.25;5483632;32;35609;-73
2023/12/09 03:53:36;;;;;;;;;;;;;;;5.08;61.86;100919.31;5494160;32;35347;-72
2023/12/09 03:56:38;;;;;;;;;;;;;;;5.40;60.78;100915.56;5500421;32;34697;-66
2023/12/09 03:59:40;;;;;;;;;;;;;;;5.01;61.99;100922.88;5497114;32;34200;-72
2023/12/09 04:02:43;;;;;;;;;;;;;;;4.47;63.18;100924.97;5503070;32;35214;-66
2023/12/09 04:05:45;;;;;;;;;;;;;;;4.67;62.72;100926.59;5497747;32;34143;-66
2023/12/09 04:08:47;;;;;;;;;;;;;;;5.22;61.22;100915.78;5489499;32;35608;-72
2023/12/09 04:11:49;;;;;;;;;;;;;;;5.22;61.30;100920.97;5503918;32;35235;-66
2023/12/09 04:14:51;;;;;;;;;;;;;;;4.93;62.35;100924.66;5500934;32;34617;-72
2023/12/09 04:17:54;;;;;;;;;;;;;;;4.86;62.11;100923.00;5503487;32;35377;-71
2023/12/09 04:20:56;;;;;;;;;;;;;;;5.05;62.09;100926.31;5481952;32;35106;-70
2023/12/09 04:23:58;;;;;;;;;;;;;;;5.29;60.80;100918.31;5478508;32;34930;-73
2023/12/09 04:27:00;;;;;;;;;;;;;;;5.22;60.87;100920.97;5486570;32;34479;-72
2023/12/09 04:30:05;;;;;;;;;;;;;;;5.10;61.26;100916.72;5484099;32;34763;-66
2023/12/09 04:33:08;;;;;;;;;;;;;;;4.81;61.88;100915.19;5485594;32;34882;-68
2023/12/09 04:36:10;;;;;;;;;;;;;;;4.06;65.92;100926.03;5467573;32;34632;-65
2023/12/09 04:39:13;;;;;;;;;;;;;;;4.75;62.89;100928.25;5486510;32;34891;-66
2023/12/09 04:42:15;;;;;;;;;;;;;;;5.15;61.86;100921.03;5500818;32;34592;-64
2023/12/09 04:45:17;;;;;;;;;;;;;;;4.87;62.56;100924.72;5504910;32;34257;-67
2023/12/09 04:48:19;;;;;;;;;;;;;;;4.90;62.48;100927.31;5480531;32;34530;-65
2023/12/09 04:51:23;;;;;;;;;;;;;;;5.18;61.50;100919.28;5459464;32;34945;-65
2023/12/09 04:54:25;;;;;;;;;;;;;;;4.64;62.48;100927.50;5486370;32;34717;-72
2023/12/09 04:57:27;;;;;;;;;;;;;;;4.76;62.84;100929.97;5474787;32;34631;-73
2023/12/09 05:00:29;;;;;;;;;;;;;;;4.89;62.40;100934.25;5475768;32;33856;-65
2023/12/09 05:03:31;;;;;;;;;;;;;;;4.61;63.27;100933.56;5482337;32;34973;-65
2023/12/09 05:06:34;;;;;;;;;;;;;;;4.88;62.41;100932.50;5497164;32;34980;-64
2023/12/09 05:09:36;;;;;;;;;;;;;;;4.54;63.24;100936.22;5477154;32;35103;-74
2023/12/09 05:12:39;;;;;;;;;;;;;;;4.59;63.84;100939.66;5482058;32;34849;-65
2023/12/09 05:15:41;;;;;;;;;;;;;;;4.22;63.21;100924.22;5484920;32;35016;-65
2023/12/09 05:18:43;;;;;;;;;;;;;;;4.28;64.14;100936.34;5479096;32;34813;-72
2023/12/09 05:21:46;;;;;;;;;;;;;;;4.26;63.86;100932.91;5486777;32;34678;-67
2023/12/09 05:24:48;;;;;;;;;;;;;;;4.54;63.04;100928.41;5453554;32;35382;-66
2023/12/09 05:27:50;;;;;;;;;;;;;;;4.10;64.79;100926.00;5485765;32;35062;-67
2023/12/09 05:30:53;;;;;;;;;;;;;;;4.12;64.15;100932.06;5481063;32;34739;-66
2023/12/09 05:33:55;;;;;;;;;;;;;;;5.06;62.29;100938.47;5482170;32;35047;-72
2023/12/09 05:36:57;;;;;;;;;;;;;;;5.75;58.56;100925.66;5490269;32;35634;-64
2023/12/09 05:39:59;;;;;;;;;;;;;;;5.08;60.52;100942.78;5500337;32;34267;-65
2023/12/09 05:43:01;;;;;;;;;;;;;;;5.28;60.04;100954.78;5505237;32;34764;-71
2023/12/09 05:46:04;;;;;;;;;;;;;;;4.89;60.58;100955.09;5498859;32;34769;-67
2023/12/09 05:49:06;;;;;;;;;;;;;;;4.87;61.16;100950.75;5504291;32;34377;-70
2023/12/09 05:52:08;;;;;;;;;;;;;;;5.07;60.04;100948.87;5497080;31;34891;-65
2023/12/09 05:55:14;;;;;;;;;;;;;;;4.97;59.98;100931.59;5497459;32;34041;-72
2023/12/09 05:58:16;;;;;;;;;;;;;;;4.98;60.58;100943.75;5486473;32;36195;-73
2023/12/09 06:01:18;;;;;;;;;;;;;;;4.64;61.45;100937.91;5480547;32;35071;-73
2023/12/09 06:04:20;;;;;;;;;;;;;;;5.06;60.41;100936.72;5486312;32;34344;-65
2023/12/09 06:07:22;;;;;;;;;;;;;;;4.78;61.53;100936.06;5481424;32;34753;-65
2023/12/09 06:10:24;;;;;;;;;;;;;;;5.12;60.68;100946.25;5470520;32;35415;-72
2023/12/09 06:13:26;;;;;;;;;;;;;;;5.08;60.73;100945.37;5482267;32;35296;-71
2023/12/09 06:16:29;;;;;;;;;;;;;;;4.39;62.65;100949.31;5476398;32;34723;-71
2023/12/09 06:19:31;;;;;;;;;;;;;;;5.12;60.55;100941.87;5501501;32;34291;-72
2023/12/09 06:22:33;;;;;;;;;;;;;;;5.03;59.99;100946.31;5493944;31;34479;-65
2023/12/09 06:25:35;;;;;;;;;;;;;;;5.02;60.49;100944.56;5497375;32;34989;-71
2023/12/09 06:28:37;;;;;;;;;;;;;;;5.22;59.13;100934.88;5469349;32;35180;-72
2023/12/09 06:31:39;;;;;;;;;;;;;;;5.19;59.08;100942.69;5477842;32;34686;-72
2023/12/09 06:34:41;;;;;;;;;;;;;;;5.18;58.40;100946.19;5485662;32;34909;-65
2023/12/09 06:37:44;;;;;;;;;;;;;;;5.12;58.81;100948.84;5490988;32;35269;-72
2023/12/09 06:40:46;;;;;;;;;;;;;;;4.84;60.14;100946.44;5485773;32;35217;-72
2023/12/09 06:43:48;;;;;;;;;;;;;;;5.08;59.82;100941.91;5481599;32;34979;-73
2023/12/09 06:46:50;;;;;;;;;;;;;;;5.29;58.62;100936.56;5485443;32;34205;-67
2023/12/09 06:49:53;;;;;;;;;;;;;;;5.25;58.54;100940.06;5482819;32;34753;-71
2023/12/09 06:52:55;;;;;;;;;;;;;;;5.05;59.13;100942.81;5484724;32;35118;-72
2023/12/09 06:55:57;;;;;;;;;;;;;;;4.85;59.30;100950.78;5483056;32;35032;-71
2023/12/09 06:59:00;;;;;;;;;;;;;;;5.27;58.16;100953.91;5482167;32;34653;-72
2023/12/09 07:02:02;;;;;;;;;;;;;;;5.16;58.08;100955.78;5485244;32;34848;-70
2023/12/09 07:05:04;;;;;;;;;;;;;;;5.22;58.14;100952.25;5481318;32;34637;-67
2023/12/09 07:08:08;;;;;;;;;;;;;;;4.72;59.52;100956.94;5473666;32;34496;-71
2023/12/09 07:11:10;;;;;;;;;;;;;;;4.82;60.23;100957.72;5493159;32;34834;-67
2023/12/09 07:14:15;;;;;;;;;;;;;;;5.28;58.93;100960.00;5502785;32;35384;-72
2023/12/09 07:17:17;;;;;;;;;;;;;;;5.29;58.25;100965.22;5498900;32;34390;-67
2023/12/09 07:20:19;;;;;;;;;;;;;;;5.22;58.53;100968.75;5480609;32;34099;-71
2023/12/09 07:23:21;;;;;;;;;;;;;;;5.02;58.62;100966.28;5502615;32;35842;-71
2023/12/09 07:26:23;;;;;;;;;;;;;;;5.08;58.70;100965.38;5494584;32;34351;-72
2023/12/09 07:29:26;;;;;;;;;;;;;;;4.85;59.64;100963.81;5485807;32;34934;-65
2023/12/09 07:32:32;;;;;;;;;;;;;;;4.83;59.77;100967.28;5480675;32;36531;-65
2023/12/09 07:35:34;;;;;;;;;;;;;;;5.20;58.47;100959.19;5474654;32;34652;-71
2023/12/09 07:38:36;;;;;;;;;;;;;;;5.11;58.00;100955.81;5489289;32;34652;-72
2023/12/09 07:41:38;;;;;;;;;;;;;;;4.49;60.31;100969.22;5482967;32;34763;-66
2023/12/09 07:44:40;;;;;;;;;;;;;;;5.32;58.12;100959.97;5487809;32;36002;-67
2023/12/09 07:47:43;;;;;;;;;;;;;;;5.48;57.47;100965.06;5482808;32;34271;-71
2023/12/09 07:50:45;;;;;;;;;;;;;;;5.43;57.30;100955.53;5488082;32;34938;-65
2023/12/09 07:53:47;;;;;;;;;;;;;;;5.31;58.63;100976.47;5482862;32;35089;-65
2023/12/09 07:56:49;;;;;;;;;;;;;;;5.29;58.73;100978.25;5483143;32;34940;-66
2023/12/09 07:59:51;;;;;;;;;;;;;;;4.76;60.14;100966.44;5486669;32;35051;-71
2023/12/09 08:02:54;;;;;;;;;;;;;;;4.81;60.21;100964.69;5482291;32;34725;-66
2023/12/09 08:05:56;;;;;;;;;;;;;;;4.49;61.97;100970.06;5473051;32;34579;-65
2023/12/09 08:08:59;;;;;;;;;;;;;;;4.96;60.22;100960.25;5483788;32;35223;-71
2023/12/09 08:12:01;;;;;;;;;;;;;;;4.79;61.19;100969.03;5472252;32;35599;-71
2023/12/09 08:15:04;;;;;;;;;;;;;;;4.69;59.92;100972.56;5467097;32;36018;-64
2023/12/09 08:18:06;;;;;;;;;;;;;;;4.85;60.64;100971.63;5479747;32;34898;-65
2023/12/09 08:21:10;;;;;;;;;;;;;;;4.63;60.91;100980.41;5486193;32;35040;-65
2023/12/09 08:24:12;;;;;;;;;;;;;;;5.34;57.88;100963.41;5482722;32;34707;-65
2023/12/09 08:27:14;;;;;;;;;;;;;;;5.19;58.33;100952.25;5487073;32;34461;-68
2023/12/09 08:30:17;;;;;;;;;;;;;;;5.53;58.11;100964.12;5467763;32;33715;-67
2023/12/09 08:33:19;;;;;;;;;;;;;;;5.28;58.32;100953.06;5479698;32;34207;-65
2023/12/09 08:36:22;;;;;;;;;;;;;;;5.37;58.76;100958.19;5485040;32;35255;-71
2023/12/09 08:39:24;;;;;;;;;;;;;;;5.70;57.64;100949.19;5479324;32;34975;-66
2023/12/09 08:42:26;;;;;;;;;;;;;;;4.58;60.74;100957.03;5477843;32;34805;-72
2023/12/09 08:45:31;;;;;;;;;;;;;;;5.36;58.73;100956.47;5480402;32;34318;-71
2023/12/09 08:48:33;;;;;;;;;;;;;;;5.54;57.89;100954.56;5487498;32;35591;-65
2023/12/09 08:51:43;;;;;;;;;;;;;;;5.31;58.82;100953.03;5482759;32;35710;-65
2023/12/09 08:54:45;;;;;;;;;;;;;;;5.42;58.72;100958.16;5488783;32;35275;-65
2023/12/09 08:57:48;;;;;;;;;;;;;;;5.41;58.88;100956.44;5500975;32;34106;-72
2023/12/09 09:00:51;;;;;;;;;;;;;;;5.38;59.16;100957.31;5499610;32;35069;-71
2023/12/09 09:03:54;;;;;;;;;;;;;;;5.20;60.30;100959.19;5505888;32;34382;-71
2023/12/09 09:06:56;;;;;;;;;;;;;;;5.74;58.82;100960.47;5500568;32;35440;-71
2023/12/09 09:09:59;;;;;;;;;;;;;;;5.68;58.97;100958.78;5489933;32;34789;-72
2023/12/09 09:13:01;;;;;;;;;;;;;;;5.57;58.80;100962.34;5500985;32;35293;-72
2023/12/09 09:16:04;;;;;;;;;;;;;;;5.24;59.74;100960.91;5498795;32;35021;-72
2023/12/09 09:19:06;;;;;;;;;;;;;;;5.80;58.63;100951.72;5479958;32;35343;-67
2023/12/09 09:22:08;;;;;;;;;;;;;;;5.16;60.22;100960.97;5482281;32;34688;-71
2023/12/09 09:25:10;;;;;;;;;;;;;;;4.88;61.95;100960.28;5506049;32;34754;-66
2023/12/09 09:28:13;;;;;;;;;;;;;;;5.07;61.35;100968.84;5500965;32;34806;-72
2023/12/09 09:31:15;;;;;;;;;;;;;;;5.45;60.00;100950.28;5505271;32;34997;-72
2023/12/09 09:34:17;;;;;;;;;;;;;;;5.47;60.23;100942.44;5501183;32;34280;-66
2023/12/09 09:37:20;;;;;;;;;;;;;;;5.84;59.12;100949.03;5471165;31;35336;-66
2023/12/09 09:40:23;;;;;;;;;;;;;;;4.79;61.94;100936.94;5487730;32;34316;-65
2023/12/09 09:43:27;;;;;;;;;;;;;;;4.60;62.87;100946.59;5492799;32;34870;-66
2023/12/09 09:46:30;;;;;;;;;;;;;;;5.28;60.70;100953.06;5475692;32;35429;-72
2023/12/09 09:49:32;;;;;;;;;;;;;;;5.15;61.01;100947.09;5482717;32;35284;-66
2023/12/09 09:52:35;;;;;;;;;;;;;;;5.21;60.39;100929.66;5486416;32;34765;-72
2023/12/09 09:55:42;;;;;;;;;;;;;;;5.15;61.98;100935.78;5481661;32;34174;-71
2023/12/09 09:58:44;;;;;;;;;;;;;;;4.91;62.52;100931.63;5472544;32;34805;-71
2023/12/09 10:01:46;;;;;;;;;;;;;;;5.80;59.88;100923.03;5484372;32;34832;-71
2023/12/09 10:04:48;;;;;;;;;;;;;;;5.42;60.32;100914.69;5481842;32;34795;-65
2023/12/09 10:07:50;;;;;;;;;;;;;;;6.31;57.60;100918.94;5486513;32;34359;-72
2023/12/09 10:10:52;;;;;;;;;;;;;;;6.05;58.33;100910.56;5467090;32;34962;-72
2023/12/09 10:13:54;;;;;;;;;;;;;;;6.20;58.39;100903.41;5478068;32;35109;-72
2023/12/09 10:17:23;;;;;;;;;;;;;;;6.34;57.69;100907.59;5495533;32;34774;-72
2023/12/09 10:20:54;;;;;;;;;;;;;;;6.33;58.20;100895.44;5438487;31;2657683;-65
2023/12/09 10:23:56;;;;;;;;;;;;;;;5.37;60.52;100906.06;5504262;32;34819;-73
2023/12/09 10:26:59;;;;;;;;;;;;;;;4.67;63.44;100906.62;5505120;32;35245;-72
2023/12/09 10:30:01;;;;;;;;;;;;;;;5.34;62.22;100893.03;5504722;32;35111;-66
2023/12/09 10:33:03;;;;;;;;;;;;;;;6.11;59.90;100897.44;5504099;32;34700;-65
2023/12/09 10:36:06;;;;;;;;;;;;;;;5.87;60.52;100893.38;5501923;32;35079;-67
2023/12/09 10:39:08;;;;;;;;;;;;;;;5.50;60.22;100892.91;5498519;32;34221;-65
2023/12/09 10:42:11;;;;;;;;;;;;;;;5.23;61.53;100881.00;5506626;32;34606;-64
2023/12/09 10:45:13;;;;;;;;;;;;;;;5.89;60.36;100868.97;5503637;31;34883;-66
2023/12/09 10:48:15;;;;;;;;;;;;;;;6.02;59.64;100871.47;5499592;32;35493;-66
2023/12/09 10:51:20;;;;;;;;;;;;;;;5.28;61.16;100880.09;5510881;31;34406;-66
2023/12/09 10:54:24;;;;;;;;;;;;;;;5.59;61.10;100861.50;5498648;32;35478;-71
2023/12/09 10:57:27;;;;;;;;;;;;;;;5.86;60.66;100863.81;5502406;32;34157;-72
2023/12/09 11:00:30;;;;;;;;;;;;;;;6.07;59.67;100859.25;5496093;32;34809;-73
2023/12/09 11:03:32;;;;;;;;;;;;;;;5.95;59.30;100852.44;5505735;31;34208;-71
2023/12/09 11:06:34;;;;;;;;;;;;;;;6.39;58.76;100857.03;5489849;32;35237;-66
2023/12/09 11:09:36;;;;;;;;;;;;;;;6.09;59.72;100850.50;5496095;32;34757;-65
2023/12/09 11:12:40;;;;;;;;;;;;;;;6.49;58.32;100837.72;5506841;31;34577;-65
2023/12/09 11:15:43;;;;;;;;;;;;;;;6.61;57.75;100835.81;5498165;32;35323;-67
2023/12/09 11:18:52;;;;;;;;;;;;;;;7.23;55.32;100832.16;5502703;32;34634;-66
2023/12/09 11:21:54;;;;;;;;;;;;;;;5.89;58.21;100842.03;5500760;32;35623;-74
2023/12/09 11:24:57;;;;;;;;;;;;;;;5.96;59.14;100843.72;5508310;32;34709;-67
2023/12/09 11:27:59;;;;;;;;;;;;;;;6.20;58.99;100838.16;5509498;32;35278;-65
2023/12/09 11:31:01;;;;;;;;;;;;;;;6.34;58.81;100843.19;5490672;32;34111;-73
2023/12/09 11:34:14;;;;;;;;;;;;;;;5.85;59.41;100837.72;5487919;32;34530;-71
2023/12/09 11:37:16;;;;;;;;;;;;;;;5.44;60.52;100845.16;5489718;32;35149;-72
2023/12/09 11:40:19;;;;;;;;;;;;;;;6.10;58.28;100846.13;5467057;32;34445;-71
2023/12/09 11:43:21;;;;;;;;;;;;;;;6.01;59.70;100841.03;5492788;32;34402;-67
2023/12/09 11:46:24;;;;;;;;;;;;;;;6.06;57.93;100834.03;5493109;32;34715;-65
2023/12/09 11:49:26;;;;;;;;;;;;;;;5.66;59.85;100842.28;5489777;32;34972;-66
2023/12/09 11:52:29;;;;;;;;;;;;;;;5.69;59.43;100839.66;5496347;32;35056;-72
2023/12/09 11:55:31;;;;;;;;;;;;;;;6.33;57.55;100838.84;5488085;32;34970;-66
2023/12/09 11:58:33;;;;;;;;;;;;;;;6.46;56.83;100834.31;5493147;32;34931;-73
2023/12/09 12:01:40;;;;;;;;;;;;;;;6.29;57.68;100824.09;5489991;32;35248;-72
2023/12/09 12:04:42;;;;;;;;;;;;;;;5.15;61.46;100821.13;5489552;32;34791;-72
2023/12/09 12:07:44;;;;;;;;;;;;;;;5.95;59.82;100815.91;5483239;32;35167;-74
2023/12/09 12:10:46;;;;;;;;;;;;;;;5.88;60.20;100814.22;5476404;32;34900;-73
2023/12/09 12:13:49;;;;;;;;;;;;;;;5.91;60.37;100814.19;5485266;32;36507;-71
2023/12/09 12:16:51;;;;;;;;;;;;;;;5.77;61.07;100814.34;5489019;32;34200;-72
2023/12/09 12:19:53;;;;;;;;;;;;;;;5.18;61.23;100815.03;5484789;32;34941;-67
2023/12/09 12:22:56;;;;;;;;;;;;;;;5.75;61.02;100818.72;5481487;32;34841;-69
2023/12/09 12:25:58;;;;;;;;;;;;;;;5.59;61.82;100817.19;5491147;32;35181;-72
2023/12/09 12:29:01;;;;;;;;;;;;;;;5.52;62.20;100820.75;5472395;32;34439;-67
2023/12/09 12:32:05;;;;;;;;;;;;;;;5.80;61.40;100824.75;5482790;32;34562;-64
2023/12/09 12:35:07;;;;;;;;;;;;;;;5.90;60.54;100818.53;5487405;32;34055;-71
2023/12/09 12:38:09;;;;;;;;;;;;;;;5.53;62.12;100818.09;5488271;32;35454;-72
2023/12/09 12:41:11;;;;;;;;;;;;;;;5.50;62.52;100809.47;5493274;32;34692;-72
2023/12/09 12:44:13;;;;;;;;;;;;;;;5.21;63.08;100808.03;5469509;32;34291;-71
2023/12/09 12:47:16;;;;;;;;;;;;;;;5.65;62.05;100809.28;5488330;32;34677;-73
2023/12/09 12:50:18;;;;;;;;;;;;;;;5.37;62.68;100812.22;5493000;32;34325;-72
2023/12/09 12:53:22;;;;;;;;;;;;;;;5.18;63.65;100805.47;5485558;32;34012;-74
2023/12/09 12:56:25;;;;;;;;;;;;;;;5.54;61.79;100803.31;5483991;32;34757;-71
2023/12/09 12:59:27;;;;;;;;;;;;;;;5.33;62.01;100801.84;5494801;32;34215;-67
2023/12/09 13:02:32;;;;;;;;;;;;;;;5.28;62.41;100795.78;5489127;32;35281;-65
2023/12/09 13:05:34;;;;;;;;;;;;;;;4.96;63.31;100788.31;5491016;32;33407;-72
2023/12/09 13:08:40;;;;;;;;;;;;;;;4.89;64.38;100793.63;5488525;32;35250;-72
2023/12/09 13:11:42;;;;;;;;;;;;;;;4.93;64.45;100791.81;5482759;32;35082;-72
2023/12/09 13:14:45;;;;;;;;;;;;;;;5.01;63.82;100789.13;5466940;32;34866;-72
2023/12/09 13:17:47;;;;;;;;;;;;;;;5.17;63.27;100785.50;5479918;32;34650;-72
2023/12/09 13:21:06;;;;;;;;;;;;;;;4.78;64.18;100791.97;5485881;32;35136;-65
2023/12/09 13:24:08;;;;;;;;;;;;;;;4.35;65.85;100800.97;5497433;32;34883;-72
2023/12/09 13:27:10;;;;;;;;;;;;;;;4.47;65.61;100805.25;5486506;32;35316;-64
2023/12/09 13:30:13;;;;;;;;;;;;;;;4.46;65.93;100798.31;5501118;32;34215;-72
2023/12/09 13:33:16;;;;;;;;;;;;;;;4.66;64.78;100805.97;5474649;32;34916;-66
2023/12/09 13:36:18;;;;;;;;;;;;;;;4.94;64.26;100800.50;5486970;32;34679;-72
2023/12/09 13:39:25;;;;;;;;;;;;;;;4.65;65.19;100796.44;5498179;32;34999;-65
2023/12/09 13:42:27;;;;;;;;;;;;;;;4.53;65.58;100786.97;5473510;32;34333;-66
2023/12/09 13:45:35;;;;;;;;;;;;;;;5.18;63.50;100789.84;5490095;32;36853;-70
2023/12/09 13:48:38;;;;;;;;;;;;;;;4.98;63.80;100783.97;5488502;32;34395;-66
2023/12/09 13:51:40;;;;;;;;;;;;;;;4.49;64.32;100795.66;5489998;32;34235;-67
2023/12/09 13:54:43;;;;;;;;;;;;;;;4.51;65.70;100803.50;5486280;32;34898;-65
2023/12/09 13:57:45;;;;;;;;;;;;;;;4.79;64.61;100791.97;5490585;32;34742;-72
2023/12/09 14:00:48;;;;;;;;;;;;;;;4.94;64.29;100798.75;5490631;32;35014;-71
2023/12/09 14:03:50;;;;;;;;;;;;;;;5.38;62.31;100784.41;5480817;32;34523;-72
2023/12/09 14:06:52;;;;;;;;;;;;;;;5.24;62.68;100789.78;5490094;32;35555;-66
2023/12/09 14:09:55;;;;;;;;;;;;;;;4.73;63.69;100786.81;5495099;32;34427;-65
2023/12/09 14:12:57;;;;;;;;;;;;;;;4.94;63.48;100785.72;5490428;32;35379;-69
2023/12/09 14:15:59;;;;;;;;;;;;;;;5.38;61.83;100780.06;5491590;32;34838;-67
2023/12/09 14:19:02;;;;;;;;;;;;;;;4.99;62.79;100775.28;5490942;32;34109;-64
2023/12/09 14:22:05;;;;;;;;;;;;;;;4.22;65.84;100788.06;5471121;32;34608;-66
2023/12/09 14:25:08;;;;;;;;;;;;;;;4.55;65.12;100777.41;5494047;32;34138;-72
2023/12/09 14:28:11;;;;;;;;;;;;;;;4.98;63.04;100777.03;5491407;32;35011;-73
2023/12/09 14:31:13;;;;;;;;;;;;;;;4.20;65.21;100782.87;5487447;32;34831;-65
2023/12/09 14:34:15;;;;;;;;;;;;;;;4.39;65.53;100782.75;5493985;32;35116;-66
2023/12/09 14:37:18;;;;;;;;;;;;;;;4.65;65.15;100766.94;5481894;32;37136;-65
2023/12/09 14:40:20;;;;;;;;;;;;;;;4.84;64.24;100771.09;5489753;32;34719;-71
2023/12/09 14:43:22;;;;;;;;;;;;;;;4.97;63.15;100754.47;5492206;32;34780;-67
2023/12/09 14:46:24;;;;;;;;;;;;;;;4.24;66.81;100763.75;5481777;32;34477;-71
2023/12/09 14:49:27;;;;;;;;;;;;;;;4.11;66.97;100767.31;5495266;32;35205;-73
2023/12/09 14:52:30;;;;;;;;;;;;;;;3.47;67.73;100765.06;5481639;32;34603;-66
2023/12/09 14:55:32;;;;;;;;;;;;;;;3.94;67.02;100754.44;5484067;32;34844;-66
2023/12/09 14:58:35;;;;;;;;;;;;;;;4.45;65.08;100744.53;5493634;32;35417;-66
2023/12/09 15:01:37;;;;;;;;;;;;;;;4.38;65.45;100747.16;5484530;32;34927;-71
2023/12/09 15:04:40;;;;;;;;;;;;;;;4.55;64.61;100740.94;5492767;32;34757;-72
2023/12/09 15:07:43;;;;;;;;;;;;;;;4.26;64.80;100740.34;5483481;32;34557;-67
2023/12/09 15:10:45;;;;;;;;;;;;;;;4.30;65.04;100727.28;5501156;32;34747;-72
2023/12/09 15:13:48;;;;;;;;;;;;;;;4.64;64.42;100732.22;5489653;32;34586;-71
2023/12/09 15:16:50;;;;;;;;;;;;;;;4.76;63.84;100746.84;5485851;32;34761;-67
2023/12/09 15:19:52;;;;;;;;;;;;;;;4.62;63.84;100744.38;5495752;32;35277;-67
2023/12/09 15:22:54;;;;;;;;;;;;;;;4.63;64.21;100753.91;5484954;32;35517;-65
2023/12/09 15:25:57;;;;;;;;;;;;;;;4.79;63.38;100747.69;5488936;32;34846;-65
2023/12/09 15:28:59;;;;;;;;;;;;;;;4.81;63.03;100738.09;5492378;32;34895;-66
2023/12/09 15:32:01;;;;;;;;;;;;;;;4.65;63.44;100728.72;5477114;32;34854;-65
2023/12/09 15:35:04;;;;;;;;;;;;;;;4.70;63.61;100719.16;5496338;32;35488;-72
2023/12/09 15:38:07;;;;;;;;;;;;;;;4.59;63.41;100718.37;5489159;32;34642;-72
2023/12/09 15:41:09;;;;;;;;;;;;;;;4.38;65.30;100718.53;5500242;32;36070;-64
2023/12/09 15:44:11;;;;;;;;;;;;;;;4.43;65.28;100715.03;5473145;32;35290;-66
2023/12/09 15:47:13;;;;;;;;;;;;;;;4.90;62.84;100711.13;5485494;32;34790;-73
2023/12/09 15:50:15;;;;;;;;;;;;;;;4.73;62.76;100708.69;5474301;32;34208;-73
2023/12/09 15:53:18;;;;;;;;;;;;;;;3.98;65.17;100716.25;5492943;32;34428;-67